sensor_id;sensor_type;location;lat;lon;timestamp;temperature;humidity
57709;SHT35;42558;52.388;13.390;2022-12-18T00:00:22;-6.12;91.90
57709;SHT35;42558;52.388;13.390;2022-12-18T00:02:50;-6.20;91.76
57709;SHT35;42558;52.388;13.390;2022-12-18T00:05:19;-6.13;91.80
57709;SHT35;42558;52.388;13.390;2022-12-18T00:07:47;-6.37;91.72
57709;SHT35;42558;52.388;13.390;2022-12-18T00:10:16;-6.38;92.01
57709;SHT35;42558;52.388;13.390;2022-12-18T00:12:44;-6.23;92.10
57709;SHT35;42558;52.388;13.390;2022-12-18T00:15:13;-6.25;92.00
57709;SHT35;42558;52.388;13.390;2022-12-18T00:17:41;-6.26;91.88
57709;SHT35;42558;52.388;13.390;2022-12-18T00:20:10;-6.30;91.84
57709;SHT35;42558;52.388;13.390;2022-12-18T00:22:38;-6.12;91.98
57709;SHT35;42558;52.388;13.390;2022-12-18T00:25:07;-6.07;91.90
57709;SHT35;42558;52.388;13.390;2022-12-18T00:27:35;-6.08;91.68
57709;SHT35;42558;52.388;13.390;2022-12-18T00:30:04;-6.06;91.61
57709;SHT35;42558;52.388;13.390;2022-12-18T00:32:32;-6.21;91.37
57709;SHT35;42558;52.388;13.390;2022-12-18T00:35:00;-6.16;91.52
57709;SHT35;42558;52.388;13.390;2022-12-18T00:37:29;-6.07;91.58
57709;SHT35;42558;52.388;13.390;2022-12-18T00:39:57;-6.03;91.51
57709;SHT35;42558;52.388;13.390;2022-12-18T00:42:25;-5.99;91.50
57709;SHT35;42558;52.388;13.390;2022-12-18T00:45:10;-5.93;91.49
57709;SHT35;42558;52.388;13.390;2022-12-18T00:47:41;-6.00;91.31
57709;SHT35;42558;52.388;13.390;2022-12-18T00:50:11;-6.13;91.20
57709;SHT35;42558;52.388;13.390;2022-12-18T00:52:39;-6.07;91.36
57709;SHT35;42558;52.388;13.390;2022-12-18T00:55:08;-6.08;91.33
57709;SHT35;42558;52.388;13.390;2022-12-18T00:57:36;-6.26;91.16
57709;SHT35;42558;52.388;13.390;2022-12-18T01:00:05;-6.15;91.35
57709;SHT35;42558;52.388;13.390;2022-12-18T01:02:36;-6.18;91.30
57709;SHT35;42558;52.388;13.390;2022-12-18T01:05:04;-6.27;91.32
57709;SHT35;42558;52.388;13.390;2022-12-18T01:07:33;-6.18;91.45
57709;SHT35;42558;52.388;13.390;2022-12-18T01:10:01;-6.32;91.28
57709;SHT35;42558;52.388;13.390;2022-12-18T01:12:30;-6.42;91.34
57709;SHT35;42558;52.388;13.390;2022-12-18T01:14:58;-6.37;91.44
57709;SHT35;42558;52.388;13.390;2022-12-18T01:17:26;-6.46;91.39
57709;SHT35;42558;52.388;13.390;2022-12-18T01:19:55;-6.59;91.35
57709;SHT35;42558;52.388;13.390;2022-12-18T01:22:23;-6.52;91.49
57709;SHT35;42558;52.388;13.390;2022-12-18T01:24:52;-6.51;91.47
57709;SHT35;42558;52.388;13.390;2022-12-18T01:27:20;-6.53;91.50
57709;SHT35;42558;52.388;13.390;2022-12-18T01:29:49;-6.58;91.50
57709;SHT35;42558;52.388;13.390;2022-12-18T01:32:17;-6.49;91.65
57709;SHT35;42558;52.388;13.390;2022-12-18T01:34:45;-6.46;91.62
57709;SHT35;42558;52.388;13.390;2022-12-18T01:37:14;-6.39;91.68
57709;SHT35;42558;52.388;13.390;2022-12-18T01:39:42;-6.37;91.59
57709;SHT35;42558;52.388;13.390;2022-12-18T01:42:12;-6.32;91.55
57709;SHT35;42558;52.388;13.390;2022-12-18T01:47:59;-6.47;91.32
57709;SHT35;42558;52.388;13.390;2022-12-18T01:50:36;-6.39;91.43
57709;SHT35;42558;52.388;13.390;2022-12-18T01:53:10;-6.29;91.48
57709;SHT35;42558;52.388;13.390;2022-12-18T01:58:27;-6.51;91.11
57709;SHT35;42558;52.388;13.390;2022-12-18T02:01:16;-6.61;91.09
57709;SHT35;42558;52.388;13.390;2022-12-18T02:03:46;-6.61;91.09
57709;SHT35;42558;52.388;13.390;2022-12-18T02:06:39;-6.67;91.17
57709;SHT35;42558;52.388;13.390;2022-12-18T02:09:11;-6.67;91.30
57709;SHT35;42558;52.388;13.390;2022-12-18T02:14:46;-6.50;91.40
57709;SHT35;42558;52.388;13.390;2022-12-18T02:17:22;-6.41;91.34
57709;SHT35;42558;52.388;13.390;2022-12-18T02:28:55;-6.40;90.85
57709;SHT35;42558;52.388;13.390;2022-12-18T02:31:42;-6.36;90.93
57709;SHT35;42558;52.388;13.390;2022-12-18T02:34:17;-6.32;90.96
57709;SHT35;42558;52.388;13.390;2022-12-18T02:36:50;-6.32;90.88
57709;SHT35;42558;52.388;13.390;2022-12-18T02:39:23;-6.32;90.71
57709;SHT35;42558;52.388;13.390;2022-12-18T02:41:58;-6.35;90.56
57709;SHT35;42558;52.388;13.390;2022-12-18T02:44:31;-6.53;90.54
57709;SHT35;42558;52.388;13.390;2022-12-18T02:47:01;-6.51;90.73
57709;SHT35;42558;52.388;13.390;2022-12-18T02:52:31;-6.49;90.59
57709;SHT35;42558;52.388;13.390;2022-12-18T02:55:49;-6.60;90.67
57709;SHT35;42558;52.388;13.390;2022-12-18T02:58:34;-6.51;90.79
57709;SHT35;42558;52.388;13.390;2022-12-18T03:01:34;-6.53;90.75
57709;SHT35;42558;52.388;13.390;2022-12-18T03:04:26;-6.38;90.88
57709;SHT35;42558;52.388;13.390;2022-12-18T03:07:11;-6.29;90.90
57709;SHT35;42558;52.388;13.390;2022-12-18T03:09:50;-6.41;90.60
57709;SHT35;42558;52.388;13.390;2022-12-18T03:12:28;-6.60;90.51
57709;SHT35;42558;52.388;13.390;2022-12-18T03:15:07;-6.69;90.76
57709;SHT35;42558;52.388;13.390;2022-12-18T03:18:21;-6.60;91.00
57709;SHT35;42558;52.388;13.390;2022-12-18T03:21:15;-6.52;90.89
57709;SHT35;42558;52.388;13.390;2022-12-18T03:23:52;-6.62;90.80
57709;SHT35;42558;52.388;13.390;2022-12-18T03:26:25;-6.61;90.94
57709;SHT35;42558;52.388;13.390;2022-12-18T03:28:59;-6.53;90.98
57709;SHT35;42558;52.388;13.390;2022-12-18T03:31:39;-6.57;90.84
57709;SHT35;42558;52.388;13.390;2022-12-18T03:34:17;-6.64;90.86
57709;SHT35;42558;52.388;13.390;2022-12-18T03:36:56;-6.58;90.99
57709;SHT35;42558;52.388;13.390;2022-12-18T03:39:27;-6.73;90.80
57709;SHT35;42558;52.388;13.390;2022-12-18T03:41:59;-6.66;90.94
57709;SHT35;42558;52.388;13.390;2022-12-18T03:48:02;-6.70;91.09
57709;SHT35;42558;52.388;13.390;2022-12-18T03:50:44;-6.68;91.07
57709;SHT35;42558;52.388;13.390;2022-12-18T03:53:32;-6.82;91.09
57709;SHT35;42558;52.388;13.390;2022-12-18T03:56:20;-6.75;91.30
57709;SHT35;42558;52.388;13.390;2022-12-18T03:58:52;-6.71;91.29
57709;SHT35;42558;52.388;13.390;2022-12-18T04:01:24;-6.74;91.16
57709;SHT35;42558;52.388;13.390;2022-12-18T04:04:05;-6.76;91.13
57709;SHT35;42558;52.388;13.390;2022-12-18T04:06:39;-6.74;91.20
57709;SHT35;42558;52.388;13.390;2022-12-18T04:09:11;-6.69;91.27
57709;SHT35;42558;52.388;13.390;2022-12-18T04:11:42;-6.73;91.21
57709;SHT35;42558;52.388;13.390;2022-12-18T04:14:13;-6.79;91.01
57709;SHT35;42558;52.388;13.390;2022-12-18T04:16:46;-6.89;91.13
57709;SHT35;42558;52.388;13.390;2022-12-18T04:19:16;-6.84;91.21
57709;SHT35;42558;52.388;13.390;2022-12-18T04:21:46;-6.78;91.29
57709;SHT35;42558;52.388;13.390;2022-12-18T04:24:16;-6.73;91.31
57709;SHT35;42558;52.388;13.390;2022-12-18T04:26:45;-6.61;91.35
57709;SHT35;42558;52.388;13.390;2022-12-18T04:29:15;-6.75;91.07
57709;SHT35;42558;52.388;13.390;2022-12-18T04:31:45;-6.78;91.12
57709;SHT35;42558;52.388;13.390;2022-12-18T04:34:15;-6.63;91.20
57709;SHT35;42558;52.388;13.390;2022-12-18T04:36:45;-6.67;91.05
57709;SHT35;42558;52.388;13.390;2022-12-18T04:39:15;-6.68;91.00
57709;SHT35;42558;52.388;13.390;2022-12-18T04:41:44;-6.70;90.84
57709;SHT35;42558;52.388;13.390;2022-12-18T04:44:14;-6.70;90.91
57709;SHT35;42558;52.388;13.390;2022-12-18T04:46:45;-6.69;90.89
57709;SHT35;42558;52.388;13.390;2022-12-18T04:49:15;-6.73;90.90
57709;SHT35;42558;52.388;13.390;2022-12-18T04:51:44;-6.75;91.03
57709;SHT35;42558;52.388;13.390;2022-12-18T04:54:14;-6.72;91.12
57709;SHT35;42558;52.388;13.390;2022-12-18T04:56:44;-6.79;91.15
57709;SHT35;42558;52.388;13.390;2022-12-18T04:59:14;-6.76;91.18
57709;SHT35;42558;52.388;13.390;2022-12-18T05:01:44;-6.70;91.18
57709;SHT35;42558;52.388;13.390;2022-12-18T05:04:15;-6.73;91.15
57709;SHT35;42558;52.388;13.390;2022-12-18T05:06:46;-6.72;91.26
57709;SHT35;42558;52.388;13.390;2022-12-18T05:09:16;-6.81;91.28
57709;SHT35;42558;52.388;13.390;2022-12-18T05:11:45;-6.73;91.49
57709;SHT35;42558;52.388;13.390;2022-12-18T05:14:13;-6.80;91.37
57709;SHT35;42558;52.388;13.390;2022-12-18T05:16:42;-6.73;91.40
57709;SHT35;42558;52.388;13.390;2022-12-18T05:19:10;-6.75;91.36
57709;SHT35;42558;52.388;13.390;2022-12-18T05:21:38;-6.86;91.40
57709;SHT35;42558;52.388;13.390;2022-12-18T05:24:07;-6.85;91.56
57709;SHT35;42558;52.388;13.390;2022-12-18T05:26:35;-6.74;91.60
57709;SHT35;42558;52.388;13.390;2022-12-18T05:29:04;-6.83;91.51
57709;SHT35;42558;52.388;13.390;2022-12-18T05:31:32;-6.82;91.63
57709;SHT35;42558;52.388;13.390;2022-12-18T05:34:08;-6.76;91.61
57709;SHT35;42558;52.388;13.390;2022-12-18T05:36:38;-6.62;91.70
57709;SHT35;42558;52.388;13.390;2022-12-18T05:39:08;-6.51;91.66
57709;SHT35;42558;52.388;13.390;2022-12-18T05:41:38;-6.61;91.33
57709;SHT35;42558;52.388;13.390;2022-12-18T05:44:08;-6.73;91.18
57709;SHT35;42558;52.388;13.390;2022-12-18T05:46:38;-6.72;91.24
57709;SHT35;42558;52.388;13.390;2022-12-18T05:49:08;-6.68;91.33
57709;SHT35;42558;52.388;13.390;2022-12-18T05:51:38;-6.62;91.36
57709;SHT35;42558;52.388;13.390;2022-12-18T05:54:08;-6.68;91.30
57709;SHT35;42558;52.388;13.390;2022-12-18T05:56:38;-6.74;91.38
57709;SHT35;42558;52.388;13.390;2022-12-18T05:59:15;-6.66;91.51
57709;SHT35;42558;52.388;13.390;2022-12-18T06:01:45;-6.50;91.58
57709;SHT35;42558;52.388;13.390;2022-12-18T06:04:15;-6.42;91.45
57709;SHT35;42558;52.388;13.390;2022-12-18T06:06:45;-6.44;91.24
57709;SHT35;42558;52.388;13.390;2022-12-18T06:09:15;-6.41;91.09
57709;SHT35;42558;52.388;13.390;2022-12-18T06:11:45;-6.39;91.00
57709;SHT35;42558;52.388;13.390;2022-12-18T06:14:14;-6.36;90.96
57709;SHT35;42558;52.388;13.390;2022-12-18T06:16:46;-6.51;90.81
57709;SHT35;42558;52.388;13.390;2022-12-18T06:19:16;-6.61;90.88
57709;SHT35;42558;52.388;13.390;2022-12-18T06:21:46;-6.54;91.08
57709;SHT35;42558;52.388;13.390;2022-12-18T06:24:16;-6.46;91.10
57709;SHT35;42558;52.388;13.390;2022-12-18T06:26:46;-6.33;91.11
57709;SHT35;42558;52.388;13.390;2022-12-18T06:29:15;-6.28;91.14
57709;SHT35;42558;52.388;13.390;2022-12-18T06:31:45;-6.36;91.00
57709;SHT35;42558;52.388;13.390;2022-12-18T06:34:15;-6.40;91.00
57709;SHT35;42558;52.388;13.390;2022-12-18T06:36:45;-6.39;91.07
57709;SHT35;42558;52.388;13.390;2022-12-18T06:39:15;-6.40;91.10
57709;SHT35;42558;52.388;13.390;2022-12-18T06:41:42;-6.36;91.14
57709;SHT35;42558;52.388;13.390;2022-12-18T06:44:09;-6.50;91.21
57709;SHT35;42558;52.388;13.390;2022-12-18T06:46:39;-6.62;91.61
57709;SHT35;42558;52.388;13.390;2022-12-18T06:49:09;-6.49;91.81
57709;SHT35;42558;52.388;13.390;2022-12-18T06:51:39;-6.40;91.78
57709;SHT35;42558;52.388;13.390;2022-12-18T06:54:09;-6.31;91.68
57709;SHT35;42558;52.388;13.390;2022-12-18T06:56:39;-6.27;91.58
57709;SHT35;42558;52.388;13.390;2022-12-18T06:59:09;-6.27;91.41
57709;SHT35;42558;52.388;13.390;2022-12-18T07:01:38;-6.32;91.30
57709;SHT35;42558;52.388;13.390;2022-12-18T07:04:08;-6.32;91.20
57709;SHT35;42558;52.388;13.390;2022-12-18T07:06:38;-6.30;91.20
57709;SHT35;42558;52.388;13.390;2022-12-18T07:09:08;-6.33;91.12
57709;SHT35;42558;52.388;13.390;2022-12-18T07:11:38;-6.39;91.17
57709;SHT35;42558;52.388;13.390;2022-12-18T07:14:07;-6.40;91.21
57709;SHT35;42558;52.388;13.390;2022-12-18T07:16:37;-6.30;91.30
57709;SHT35;42558;52.388;13.390;2022-12-18T07:19:07;-6.32;91.21
57709;SHT35;42558;52.388;13.390;2022-12-18T07:21:35;-6.42;91.12
57709;SHT35;42558;52.388;13.390;2022-12-18T07:24:05;-6.43;91.30
57709;SHT35;42558;52.388;13.390;2022-12-18T07:26:35;-6.54;91.54
57709;SHT35;42558;52.388;13.390;2022-12-18T07:29:05;-6.38;91.67
57709;SHT35;42558;52.388;13.390;2022-12-18T07:31:34;-6.24;91.64
57709;SHT35;42558;52.388;13.390;2022-12-18T07:34:04;-6.38;91.53
57709;SHT35;42558;52.388;13.390;2022-12-18T07:36:34;-6.33;91.67
57709;SHT35;42558;52.388;13.390;2022-12-18T07:39:04;-6.25;91.78
57709;SHT35;42558;52.388;13.390;2022-12-18T07:41:33;-6.11;91.80
57709;SHT35;42558;52.388;13.390;2022-12-18T07:44:03;-6.09;91.62
57709;SHT35;42558;52.388;13.390;2022-12-18T07:46:33;-6.14;91.49
57709;SHT35;42558;52.388;13.390;2022-12-18T07:49:03;-6.06;91.50
57709;SHT35;42558;52.388;13.390;2022-12-18T07:51:33;-5.98;91.54
57709;SHT35;42558;52.388;13.390;2022-12-18T07:54:03;-5.96;91.44
57709;SHT35;42558;52.388;13.390;2022-12-18T07:56:33;-5.98;91.35
57709;SHT35;42558;52.388;13.390;2022-12-18T07:59:02;-6.03;91.30
57709;SHT35;42558;52.388;13.390;2022-12-18T08:01:33;-5.98;91.32
57709;SHT35;42558;52.388;13.390;2022-12-18T08:04:03;-5.99;91.24
57709;SHT35;42558;52.388;13.390;2022-12-18T08:06:32;-6.02;91.26
57709;SHT35;42558;52.388;13.390;2022-12-18T08:09:02;-6.03;91.30
57709;SHT35;42558;52.388;13.390;2022-12-18T08:11:32;-6.03;91.31
57709;SHT35;42558;52.388;13.390;2022-12-18T08:14:02;-5.99;91.38
57709;SHT35;42558;52.388;13.390;2022-12-18T08:16:32;-6.06;91.22
57709;SHT35;42558;52.388;13.390;2022-12-18T08:19:02;-5.99;91.32
57709;SHT35;42558;52.388;13.390;2022-12-18T08:21:32;-5.97;91.40
57709;SHT35;42558;52.388;13.390;2022-12-18T08:24:02;-5.82;91.49
57709;SHT35;42558;52.388;13.390;2022-12-18T08:26:32;-5.83;91.37
57709;SHT35;42558;52.388;13.390;2022-12-18T08:29:02;-5.86;91.26
57709;SHT35;42558;52.388;13.390;2022-12-18T08:31:32;-5.76;91.37
57709;SHT35;42558;52.388;13.390;2022-12-18T08:34:02;-5.85;91.22
57709;SHT35;42558;52.388;13.390;2022-12-18T08:36:32;-5.84;91.35
57709;SHT35;42558;52.388;13.390;2022-12-18T08:39:02;-5.80;91.32
57709;SHT35;42558;52.388;13.390;2022-12-18T08:41:32;-5.83;91.24
57709;SHT35;42558;52.388;13.390;2022-12-18T08:44:02;-5.77;91.24
57709;SHT35;42558;52.388;13.390;2022-12-18T08:46:50;-5.86;91.04
57709;SHT35;42558;52.388;13.390;2022-12-18T08:49:20;-5.93;91.15
57709;SHT35;42558;52.388;13.390;2022-12-18T08:51:53;-5.78;91.40
57709;SHT35;42558;52.388;13.390;2022-12-18T08:54:25;-5.75;91.25
57709;SHT35;42558;52.388;13.390;2022-12-18T08:56:53;-5.73;91.16
57709;SHT35;42558;52.388;13.390;2022-12-18T08:59:22;-5.67;91.06
57709;SHT35;42558;52.388;13.390;2022-12-18T09:01:50;-5.53;91.06
57709;SHT35;42558;52.388;13.390;2022-12-18T09:04:23;-5.59;90.85
57709;SHT35;42558;52.388;13.390;2022-12-18T09:06:53;-5.69;90.82
57709;SHT35;42558;52.388;13.390;2022-12-18T09:09:23;-5.50;90.97
57709;SHT35;42558;52.388;13.390;2022-12-18T09:11:53;-5.58;90.70
57709;SHT35;42558;52.388;13.390;2022-12-18T09:14:22;-5.60;90.76
57709;SHT35;42558;52.388;13.390;2022-12-18T09:16:52;-5.46;90.84
57709;SHT35;42558;52.388;13.390;2022-12-18T09:19:22;-5.60;90.56
57709;SHT35;42558;52.388;13.390;2022-12-18T09:21:52;-5.73;90.81
57709;SHT35;42558;52.388;13.390;2022-12-18T09:24:22;-5.67;91.00
57709;SHT35;42558;52.388;13.390;2022-12-18T09:26:54;-5.55;91.09
57709;SHT35;42558;52.388;13.390;2022-12-18T09:29:26;-5.63;90.99
57709;SHT35;42558;52.388;13.390;2022-12-18T09:31:54;-5.76;91.33
57709;SHT35;42558;52.388;13.390;2022-12-18T09:34:23;-5.69;91.38
57709;SHT35;42558;52.388;13.390;2022-12-18T09:36:51;-5.55;91.38
57709;SHT35;42558;52.388;13.390;2022-12-18T09:39:20;-5.49;91.39
57709;SHT35;42558;52.388;13.390;2022-12-18T09:41:55;-5.49;91.35
57709;SHT35;42558;52.388;13.390;2022-12-18T09:44:29;-5.68;91.54
57709;SHT35;42558;52.388;13.390;2022-12-18T09:47:15;-5.51;91.94
57709;SHT35;42558;52.388;13.390;2022-12-18T09:49:53;-5.35;91.86
57709;SHT35;42558;52.388;13.390;2022-12-18T09:52:32;-5.37;91.67
57709;SHT35;42558;52.388;13.390;2022-12-18T09:58:17;-5.10;91.61
57709;SHT35;42558;52.388;13.390;2022-12-18T10:00:51;-5.21;91.44
57709;SHT35;42558;52.388;13.390;2022-12-18T10:03:22;-5.25;91.59
57709;SHT35;42558;52.388;13.390;2022-12-18T10:06:02;-5.26;91.78
57709;SHT35;42558;52.388;13.390;2022-12-18T10:08:59;-5.16;91.90
57709;SHT35;42558;52.388;13.390;2022-12-18T10:11:45;-5.03;91.87
57709;SHT35;42558;52.388;13.390;2022-12-18T10:17:54;-4.83;91.70
57709;SHT35;42558;52.388;13.390;2022-12-18T10:21:10;-4.67;91.69
57709;SHT35;42558;52.388;13.390;2022-12-18T10:26:42;-4.66;91.37
57709;SHT35;42558;52.388;13.390;2022-12-18T10:29:14;-4.65;91.40
57709;SHT35;42558;52.388;13.390;2022-12-18T10:31:45;-4.65;91.50
57709;SHT35;42558;52.388;13.390;2022-12-18T10:34:15;-4.57;91.61
57709;SHT35;42558;52.388;13.390;2022-12-18T10:36:46;-4.80;91.71
57709;SHT35;42558;52.388;13.390;2022-12-18T10:39:18;-4.74;92.18
57709;SHT35;42558;52.388;13.390;2022-12-18T10:42:17;-4.66;92.13
57709;SHT35;42558;52.388;13.390;2022-12-18T10:44:53;-4.55;92.15
57709;SHT35;42558;52.388;13.390;2022-12-18T10:47:37;-4.50;91.97
57709;SHT35;42558;52.388;13.390;2022-12-18T10:50:33;-4.44;91.93
57709;SHT35;42558;52.388;13.390;2022-12-18T10:53:28;-4.49;92.09
57709;SHT35;42558;52.388;13.390;2022-12-18T10:56:02;-4.31;92.14
57709;SHT35;42558;52.388;13.390;2022-12-18T10:58:36;-4.42;91.85
57709;SHT35;42558;52.388;13.390;2022-12-18T11:01:17;-4.37;91.92
57709;SHT35;42558;52.388;13.390;2022-12-18T11:06:30;-4.22;91.87
57709;SHT35;42558;52.388;13.390;2022-12-18T11:09:02;-4.26;91.64
57709;SHT35;42558;52.388;13.390;2022-12-18T11:11:42;-4.12;91.76
57709;SHT35;42558;52.388;13.390;2022-12-18T11:14:22;-4.26;91.36
57709;SHT35;42558;52.388;13.390;2022-12-18T11:17:02;-4.27;91.46
57709;SHT35;42558;52.388;13.390;2022-12-18T11:19:55;-4.37;91.41
57709;SHT35;42558;52.388;13.390;2022-12-18T11:22:32;-4.25;91.40
57709;SHT35;42558;52.388;13.390;2022-12-18T11:25:07;-4.35;91.36
57709;SHT35;42558;52.388;13.390;2022-12-18T11:28:06;-4.25;91.51
57709;SHT35;42558;52.388;13.390;2022-12-18T11:31:20;-4.29;91.23
57709;SHT35;42558;52.388;13.390;2022-12-18T11:34:16;-4.19;91.26
57709;SHT35;42558;52.388;13.390;2022-12-18T11:36:58;-4.13;91.20
57709;SHT35;42558;52.388;13.390;2022-12-18T11:42:45;-4.12;90.97
57709;SHT35;42558;52.388;13.390;2022-12-18T11:45:28;-4.06;90.96
57709;SHT35;42558;52.388;13.390;2022-12-18T11:48:18;-4.18;90.80
57709;SHT35;42558;52.388;13.390;2022-12-18T11:51:00;-4.00;91.02
57709;SHT35;42558;52.388;13.390;2022-12-18T11:53:35;-4.00;90.82
57709;SHT35;42558;52.388;13.390;2022-12-18T11:58:47;-4.11;90.86
57709;SHT35;42558;52.388;13.390;2022-12-18T12:13:31;-3.90;90.22
57709;SHT35;42558;52.388;13.390;2022-12-18T12:16:29;-3.80;90.29
57709;SHT35;42558;52.388;13.390;2022-12-18T12:19:43;-3.82;90.06
57709;SHT35;42558;52.388;13.390;2022-12-18T12:30:25;-3.85;90.32
57709;SHT35;42558;52.388;13.390;2022-12-18T12:39:24;-3.99;90.26
57709;SHT35;42558;52.388;13.390;2022-12-18T12:42:02;-4.05;90.61
57709;SHT35;42558;52.388;13.390;2022-12-18T12:45:19;-4.17;90.67
57709;SHT35;42558;52.388;13.390;2022-12-18T12:48:01;-4.13;90.83
57709;SHT35;42558;52.388;13.390;2022-12-18T12:50:36;-4.07;90.65
57709;SHT35;42558;52.388;13.390;2022-12-18T12:53:09;-3.99;90.47
57709;SHT35;42558;52.388;13.390;2022-12-18T12:55:54;-4.11;90.24
57709;SHT35;42558;52.388;13.390;2022-12-18T12:58:28;-4.10;90.41
57709;SHT35;42558;52.388;13.390;2022-12-18T13:07:32;-4.04;90.91
57709;SHT35;42558;52.388;13.390;2022-12-18T13:12:56;-3.88;90.46
57709;SHT35;42558;52.388;13.390;2022-12-18T13:15:40;-3.92;90.09
57709;SHT35;42558;52.388;13.390;2022-12-18T13:18:13;-3.97;89.96
57709;SHT35;42558;52.388;13.390;2022-12-18T13:23:31;-3.95;89.89
57709;SHT35;42558;52.388;13.390;2022-12-18T13:28:57;-4.09;89.69
57709;SHT35;42558;52.388;13.390;2022-12-18T13:34:19;-4.13;89.87
57709;SHT35;42558;52.388;13.390;2022-12-18T13:37:34;-4.05;89.97
57709;SHT35;42558;52.388;13.390;2022-12-18T13:40:02;-4.10;89.67
57709;SHT35;42558;52.388;13.390;2022-12-18T13:45:48;-4.07;89.86
57709;SHT35;42558;52.388;13.390;2022-12-18T13:48:34;-3.99;89.70
57709;SHT35;42558;52.388;13.390;2022-12-18T13:51:08;-3.98;89.52
57709;SHT35;42558;52.388;13.390;2022-12-18T13:53:48;-4.07;89.41
57709;SHT35;42558;52.388;13.390;2022-12-18T13:56:27;-4.02;89.63
57709;SHT35;42558;52.388;13.390;2022-12-18T13:59:10;-3.90;89.73
57709;SHT35;42558;52.388;13.390;2022-12-18T14:04:28;-4.20;89.77
57709;SHT35;42558;52.388;13.390;2022-12-18T14:07:13;-4.25;90.22
57709;SHT35;42558;52.388;13.390;2022-12-18T14:09:49;-4.12;90.20
57709;SHT35;42558;52.388;13.390;2022-12-18T14:12:35;-4.03;90.05
57709;SHT35;42558;52.388;13.390;2022-12-18T14:20:48;-4.09;89.75
57709;SHT35;42558;52.388;13.390;2022-12-18T14:23:32;-4.08;90.01
57709;SHT35;42558;52.388;13.390;2022-12-18T14:28:53;-4.22;90.12
57709;SHT35;42558;52.388;13.390;2022-12-18T14:31:31;-4.20;89.99
57709;SHT35;42558;52.388;13.390;2022-12-18T14:33:58;-4.27;89.97
57709;SHT35;42558;52.388;13.390;2022-12-18T14:36:28;-4.25;90.20
57709;SHT35;42558;52.388;13.390;2022-12-18T14:38:58;-4.14;90.27
57709;SHT35;42558;52.388;13.390;2022-12-18T14:41:27;-4.20;90.24
57709;SHT35;42558;52.388;13.390;2022-12-18T14:43:56;-4.21;90.41
57709;SHT35;42558;52.388;13.390;2022-12-18T14:46:38;-4.15;90.50
57709;SHT35;42558;52.388;13.390;2022-12-18T14:49:23;-4.22;90.45
57709;SHT35;42558;52.388;13.390;2022-12-18T14:52:06;-4.27;90.59
57709;SHT35;42558;52.388;13.390;2022-12-18T14:55:04;-4.24;90.60
57709;SHT35;42558;52.388;13.390;2022-12-18T14:57:43;-4.29;90.62
57709;SHT35;42558;52.388;13.390;2022-12-18T15:00:15;-4.28;90.74
57709;SHT35;42558;52.388;13.390;2022-12-18T15:02:53;-4.31;90.55
57709;SHT35;42558;52.388;13.390;2022-12-18T15:05:30;-4.53;90.25
57709;SHT35;42558;52.388;13.390;2022-12-18T15:08:01;-4.58;90.29
57709;SHT35;42558;52.388;13.390;2022-12-18T15:10:32;-4.54;90.20
57709;SHT35;42558;52.388;13.390;2022-12-18T15:20:40;-4.57;90.38
57709;SHT35;42558;52.388;13.390;2022-12-18T15:26:20;-4.54;90.10
57709;SHT35;42558;52.388;13.390;2022-12-18T15:28:52;-4.55;90.02
57709;SHT35;42558;52.388;13.390;2022-12-18T15:31:29;-4.55;90.15
57709;SHT35;42558;52.388;13.390;2022-12-18T15:34:11;-4.60;90.13
57709;SHT35;42558;52.388;13.390;2022-12-18T15:36:50;-4.57;90.21
57709;SHT35;42558;52.388;13.390;2022-12-18T15:39:20;-4.47;90.24
57709;SHT35;42558;52.388;13.390;2022-12-18T15:41:51;-4.44;90.23
57709;SHT35;42558;52.388;13.390;2022-12-18T15:44:42;-4.42;90.13
57709;SHT35;42558;52.388;13.390;2022-12-18T15:47:11;-4.47;90.16
57709;SHT35;42558;52.388;13.390;2022-12-18T15:49:42;-4.52;90.26
57709;SHT35;42558;52.388;13.390;2022-12-18T15:52:12;-4.48;90.62
57709;SHT35;42558;52.388;13.390;2022-12-18T15:54:43;-4.40;90.71
57709;SHT35;42558;52.388;13.390;2022-12-18T15:57:31;-4.49;90.30
57709;SHT35;42558;52.388;13.390;2022-12-18T16:00:02;-4.49;90.23
57709;SHT35;42558;52.388;13.390;2022-12-18T16:02:33;-4.58;89.79
57709;SHT35;42558;52.388;13.390;2022-12-18T16:05:05;-4.52;89.86
57709;SHT35;42558;52.388;13.390;2022-12-18T16:07:46;-4.51;89.66
57709;SHT35;42558;52.388;13.390;2022-12-18T16:10:16;-4.46;89.64
57709;SHT35;42558;52.388;13.390;2022-12-18T16:12:46;-4.46;89.61
57709;SHT35;42558;52.388;13.390;2022-12-18T16:15:15;-4.48;89.79
57709;SHT35;42558;52.388;13.390;2022-12-18T16:17:52;-4.55;89.83
57709;SHT35;42558;52.388;13.390;2022-12-18T16:20:22;-4.56;89.90
57709;SHT35;42558;52.388;13.390;2022-12-18T16:22:52;-4.55;89.94
57709;SHT35;42558;52.388;13.390;2022-12-18T16:25:23;-4.59;89.93
57709;SHT35;42558;52.388;13.390;2022-12-18T16:27:56;-4.62;89.91
57709;SHT35;42558;52.388;13.390;2022-12-18T16:30:27;-4.53;89.95
57709;SHT35;42558;52.388;13.390;2022-12-18T16:33:07;-4.49;89.80
57709;SHT35;42558;52.388;13.390;2022-12-18T16:35:40;-4.55;89.53
57709;SHT35;42558;52.388;13.390;2022-12-18T16:38:11;-4.58;89.54
57709;SHT35;42558;52.388;13.390;2022-12-18T16:40:40;-4.59;89.55
57709;SHT35;42558;52.388;13.390;2022-12-18T16:43:30;-4.69;89.51
57709;SHT35;42558;52.388;13.390;2022-12-18T16:46:00;-4.72;89.65
57709;SHT35;42558;52.388;13.390;2022-12-18T16:48:30;-4.78;89.67
57709;SHT35;42558;52.388;13.390;2022-12-18T16:51:01;-4.81;89.71
57709;SHT35;42558;52.388;13.390;2022-12-18T16:53:33;-4.85;89.70
57709;SHT35;42558;52.388;13.390;2022-12-18T16:56:03;-4.89;89.81
57709;SHT35;42558;52.388;13.390;2022-12-18T16:58:34;-4.94;89.78
57709;SHT35;42558;52.388;13.390;2022-12-18T17:01:09;-4.97;89.78
57709;SHT35;42558;52.388;13.390;2022-12-18T17:03:40;-5.03;89.82
57709;SHT35;42558;52.388;13.390;2022-12-18T17:06:12;-5.04;89.92
57709;SHT35;42558;52.388;13.390;2022-12-18T17:08:42;-5.02;89.91
57709;SHT35;42558;52.388;13.390;2022-12-18T17:11:10;-5.00;89.89
57709;SHT35;42558;52.388;13.390;2022-12-18T17:13:39;-5.05;89.72
57709;SHT35;42558;52.388;13.390;2022-12-18T17:16:07;-5.07;89.70
57709;SHT35;42558;52.388;13.390;2022-12-18T17:18:36;-5.14;89.73
57709;SHT35;42558;52.388;13.390;2022-12-18T17:21:05;-5.16;89.89
57709;SHT35;42558;52.388;13.390;2022-12-18T17:23:36;-5.15;89.88
57709;SHT35;42558;52.388;13.390;2022-12-18T17:26:04;-5.19;89.82
57709;SHT35;42558;52.388;13.390;2022-12-18T17:28:33;-5.21;89.87
57709;SHT35;42558;52.388;13.390;2022-12-18T17:31:01;-5.22;89.91
57709;SHT35;42558;52.388;13.390;2022-12-18T17:33:40;-5.19;89.88
57709;SHT35;42558;52.388;13.390;2022-12-18T17:36:10;-5.21;89.83
57709;SHT35;42558;52.388;13.390;2022-12-18T17:38:41;-5.21;89.82
57709;SHT35;42558;52.388;13.390;2022-12-18T17:41:11;-5.23;89.90
57709;SHT35;42558;52.388;13.390;2022-12-18T17:43:41;-5.22;89.88
57709;SHT35;42558;52.388;13.390;2022-12-18T17:46:13;-5.23;89.78
57709;SHT35;42558;52.388;13.390;2022-12-18T17:48:41;-5.22;89.76